createdAt,value
2022-09-27T00:02:26.536Z,1.33
2022-09-27T00:04:55.606Z,1.50
2022-09-27T00:07:23.185Z,1.47
2022-09-27T00:09:50.777Z,1.33
2022-09-27T00:12:18.352Z,1.50
2022-09-27T00:14:45.935Z,1.40
2022-09-27T00:17:14.904Z,1.33
2022-09-27T00:19:42.557Z,1.50
2022-09-27T00:22:10.162Z,1.40
2022-09-27T00:24:38.013Z,1.40
2022-09-27T00:27:05.605Z,1.53
2022-09-27T00:29:33.469Z,1.70
2022-09-27T00:32:01.781Z,1.70
2022-09-27T00:34:30.781Z,1.60
2022-09-27T00:36:58.432Z,1.80
2022-09-27T00:39:26.094Z,1.60
2022-09-27T00:41:53.869Z,1.50
2022-09-27T00:44:40.039Z,1.57
2022-09-27T00:47:12.453Z,1.60
2022-09-27T00:49:44.379Z,1.70
2022-09-27T00:52:13.637Z,1.80
2022-09-27T00:54:43.676Z,1.60
2022-09-27T00:57:11.624Z,1.63
2022-09-27T00:59:40.647Z,1.83
2022-09-27T01:02:09.511Z,1.50
2022-09-27T01:04:37.924Z,1.70
2022-09-27T01:07:06.912Z,1.50
2022-09-27T01:09:35.180Z,1.70
2022-09-27T01:12:07.480Z,1.50
2022-09-27T01:14:54.309Z,1.83
2022-09-27T01:17:28.865Z,1.60
2022-09-27T01:20:17.448Z,1.73
2022-09-27T01:22:52.588Z,1.60
2022-09-27T01:25:31.784Z,1.87
2022-09-27T01:28:13.436Z,1.77
2022-09-27T01:30:45.596Z,1.97
2022-09-27T01:33:23.433Z,1.80
2022-09-27T01:36:01.843Z,1.73
2022-09-27T01:38:31.981Z,1.80
2022-09-27T01:41:05.240Z,1.77
2022-09-27T01:43:43.712Z,1.43
2022-09-27T01:46:16.584Z,1.70
2022-09-27T01:49:05.699Z,1.50
2022-09-27T01:51:36.480Z,1.70
2022-09-27T01:54:05.141Z,1.83
2022-09-27T01:56:34.216Z,1.60
2022-09-27T01:59:08.689Z,1.60
2022-09-27T02:01:40.342Z,1.60
2022-09-27T02:04:09.769Z,1.60
2022-09-27T02:07:09.779Z,1.70
2022-09-27T02:09:40.144Z,1.67
2022-09-27T02:12:21.603Z,1.50
2022-09-27T02:14:52.809Z,1.60
2022-09-27T02:17:27.276Z,1.40
2022-09-27T02:19:57.725Z,2.10
2022-09-27T02:22:34.942Z,2.17
2022-09-27T02:25:05.884Z,1.80
2022-09-27T02:27:35.136Z,1.30
2022-09-27T02:30:09.131Z,1.10
2022-09-27T02:32:39.188Z,1.20
2022-09-27T02:35:09.224Z,0.87
2022-09-27T02:37:37.013Z,0.93
2022-09-27T02:40:05.824Z,1.17
2022-09-27T02:42:34.644Z,0.90
2022-09-27T02:45:02.562Z,1.20
2022-09-27T02:47:34.560Z,2.17
2022-09-27T02:50:12.381Z,1.30
2022-09-27T02:53:12.191Z,1.30
2022-09-27T02:55:50.714Z,1.73
2022-09-27T02:58:42.488Z,1.30
2022-09-27T03:01:31.085Z,1.40
2022-09-27T03:04:24.456Z,1.40
2022-09-27T03:06:54.428Z,1.23
2022-09-27T03:09:23.097Z,1.10
2022-09-27T03:11:50.786Z,1.20
2022-09-27T03:14:18.498Z,1.33
2022-09-27T03:16:57.578Z,1.30
2022-09-27T03:19:43.645Z,1.20
2022-09-27T03:22:36.034Z,1.20
2022-09-27T03:25:03.712Z,1.40
2022-09-27T03:27:31.305Z,1.50
2022-09-27T03:29:59.510Z,1.50
2022-09-27T03:32:27.141Z,1.70
2022-09-27T03:35:07.096Z,1.60
2022-09-27T03:37:36.085Z,1.40
2022-09-27T03:40:03.916Z,1.30
2022-09-27T03:42:31.841Z,1.10
2022-09-27T03:44:59.427Z,1.30
2022-09-27T03:47:27.063Z,1.20
2022-09-27T03:49:54.679Z,1.20
2022-09-27T03:52:22.784Z,1.20
2022-09-27T03:54:52.022Z,0.90
2022-09-27T03:57:19.621Z,0.80
2022-09-27T03:59:47.544Z,0.80
2022-09-27T04:02:33.933Z,0.90
2022-09-27T04:05:20.241Z,1.00
2022-09-27T04:07:49.362Z,0.80
2022-09-27T04:10:19.935Z,0.70
2022-09-27T04:12:48.153Z,0.60
2022-09-27T04:15:15.929Z,0.80
2022-09-27T04:18:03.789Z,0.80
2022-09-27T04:20:34.530Z,0.67
2022-09-27T04:23:05.804Z,0.70
2022-09-27T04:25:36.391Z,0.63
2022-09-27T04:28:24.219Z,0.60
2022-09-27T04:30:52.366Z,0.60
2022-09-27T04:33:38.619Z,0.80
2022-09-27T04:36:29.249Z,0.63
2022-09-27T04:39:17.668Z,0.90
2022-09-27T04:41:47.589Z,0.80
2022-09-27T04:44:15.485Z,0.80
2022-09-27T04:46:46.496Z,0.80
2022-09-27T04:49:17.582Z,0.80
2022-09-27T04:51:45.648Z,1.10
2022-09-27T04:54:13.213Z,0.70
2022-09-27T04:56:50.398Z,0.90
2022-09-27T04:59:18.107Z,1.00
2022-09-27T05:01:46.266Z,1.10
2022-09-27T05:04:29.875Z,1.20
2022-09-27T05:06:57.580Z,1.07
2022-09-27T05:09:41.572Z,1.20
2022-09-27T05:12:11.113Z,1.00
2022-09-27T05:15:14.233Z,1.00
2022-09-27T05:18:04.896Z,1.00
2022-09-27T05:21:01.946Z,1.00
2022-09-27T05:23:36.077Z,1.20
2022-09-27T05:26:04.719Z,1.50
2022-09-27T05:28:35.046Z,1.50
2022-09-27T05:31:03.120Z,1.40
2022-09-27T05:33:31.183Z,1.80
2022-09-27T05:36:17.549Z,1.43
2022-09-27T05:38:45.650Z,1.73
2022-09-27T05:41:13.596Z,1.30
2022-09-27T05:43:42.701Z,1.30
2022-09-27T05:46:10.340Z,1.80
2022-09-27T05:48:39.541Z,1.33
2022-09-27T05:51:08.154Z,1.60
2022-09-27T05:53:38.869Z,1.70
2022-09-27T05:56:10.879Z,1.40
2022-09-27T05:58:58.846Z,1.33
2022-09-27T06:01:29.864Z,1.30
2022-09-27T06:04:20.727Z,1.50
2022-09-27T06:07:11.325Z,1.30
2022-09-27T06:09:38.924Z,1.20
2022-09-27T06:12:11.747Z,1.40
2022-09-27T06:14:40.837Z,1.17
2022-09-27T06:17:17.582Z,1.30
2022-09-27T06:19:47.613Z,1.50
2022-09-27T06:22:15.941Z,1.50
2022-09-27T06:24:54.129Z,1.40
2022-09-27T06:27:26.259Z,1.03
2022-09-27T06:30:07.403Z,1.03
2022-09-27T06:32:47.495Z,1.30
2022-09-27T06:35:25.000Z,1.10
2022-09-27T06:37:52.865Z,1.27
2022-09-27T06:40:21.142Z,1.60
2022-09-27T06:43:11.614Z,1.23
2022-09-27T06:46:15.994Z,1.40
2022-09-27T06:49:02.185Z,1.20
2022-09-27T06:51:30.029Z,1.20
2022-09-27T06:53:58.033Z,1.20
2022-09-27T06:56:25.809Z,1.00
2022-09-27T06:59:11.697Z,1.10
2022-09-27T07:01:43.668Z,1.00
2022-09-27T07:04:11.647Z,0.93
2022-09-27T07:06:51.468Z,1.00
2022-09-27T07:09:22.768Z,1.20
2022-09-27T07:11:50.403Z,1.10
2022-09-27T07:14:18.425Z,1.00
2022-09-27T07:16:47.547Z,1.20
2022-09-27T07:19:15.344Z,1.20
2022-09-27T07:21:44.010Z,1.23
2022-09-27T07:24:11.580Z,1.00
2022-09-27T07:26:40.313Z,1.10
2022-09-27T07:29:09.781Z,1.20
2022-09-27T07:31:38.009Z,1.00
2022-09-27T07:34:07.976Z,1.10
2022-09-27T07:36:35.878Z,1.20
2022-09-27T07:39:03.951Z,1.13
2022-09-27T07:41:34.153Z,1.00
2022-09-27T07:44:03.549Z,1.33
2022-09-27T07:46:33.967Z,1.10
2022-09-27T07:49:10.168Z,1.10
2022-09-27T07:52:06.879Z,1.10
2022-09-27T07:54:44.676Z,1.10
2022-09-27T07:57:28.431Z,1.00
2022-09-27T07:59:58.352Z,1.10
2022-09-27T08:02:26.003Z,1.00
2022-09-27T08:04:56.358Z,1.00
2022-09-27T08:07:26.921Z,1.07
2022-09-27T08:09:56.184Z,1.20
2022-09-27T08:12:24.233Z,0.90
2022-09-27T08:14:52.231Z,1.27
2022-09-27T08:17:20.420Z,0.90
2022-09-27T08:20:08.662Z,0.97
2022-09-27T08:23:04.045Z,0.90
2022-09-27T08:25:36.436Z,0.90
2022-09-27T08:28:07.396Z,0.73
2022-09-27T08:30:40.016Z,1.10
2022-09-27T08:33:08.301Z,1.00
2022-09-27T08:35:37.980Z,1.40
2022-09-27T08:38:06.646Z,1.47
2022-09-27T08:40:44.169Z,1.10
2022-09-27T08:43:15.101Z,1.20
2022-09-27T08:45:47.743Z,1.23
2022-09-27T08:48:17.089Z,1.30
2022-09-27T08:50:47.881Z,1.40
2022-09-27T08:53:19.211Z,1.73
2022-09-27T08:55:50.406Z,1.40
2022-09-27T08:58:25.907Z,1.67
2022-09-27T09:00:55.824Z,1.60
2022-09-27T09:03:28.146Z,1.33
2022-09-27T09:06:05.178Z,1.70
2022-09-27T09:08:42.011Z,1.40
2022-09-27T09:11:33.212Z,1.60
2022-09-27T09:14:19.094Z,1.50
2022-09-27T09:16:53.988Z,1.30
2022-09-27T09:19:32.116Z,1.30
2022-09-27T09:22:28.950Z,1.40
2022-09-27T09:25:05.677Z,1.00
2022-09-27T09:27:38.545Z,1.60
2022-09-27T09:30:18.396Z,1.93
2022-09-27T09:33:00.377Z,1.13
2022-09-27T09:35:29.728Z,1.37
2022-09-27T09:37:59.764Z,1.20
2022-09-27T09:40:29.270Z,1.20
2022-09-27T09:43:00.121Z,1.23
2022-09-27T09:45:30.304Z,1.20
2022-09-27T09:48:01.839Z,1.10
2022-09-27T09:50:32.753Z,1.20
2022-09-27T09:53:04.252Z,1.20
2022-09-27T09:55:34.448Z,1.17
2022-09-27T09:58:05.701Z,1.40
2022-09-27T10:00:43.016Z,1.40
2022-09-27T10:03:10.859Z,1.20
2022-09-27T10:05:38.718Z,1.10
2022-09-27T10:08:14.028Z,1.20
2022-09-27T10:10:41.813Z,1.40
2022-09-27T10:13:31.836Z,1.20
2022-09-27T10:16:03.882Z,1.40
2022-09-27T10:18:33.283Z,1.10
2022-09-27T10:21:04.115Z,1.20
2022-09-27T10:23:33.148Z,1.13
2022-09-27T10:26:13.185Z,1.00
2022-09-27T10:28:52.133Z,1.30
2022-09-27T10:31:36.115Z,1.10
2022-09-27T10:34:21.385Z,1.50
2022-09-27T10:37:03.754Z,1.17
2022-09-27T10:39:33.350Z,1.00
2022-09-27T10:42:01.011Z,1.30
2022-09-27T10:44:37.959Z,1.10
2022-09-27T10:47:22.717Z,1.13
2022-09-27T10:50:45.996Z,1.20
2022-09-27T10:53:32.545Z,1.20
2022-09-27T10:56:07.009Z,1.10
2022-09-27T10:58:35.731Z,0.93
2022-09-27T11:01:06.302Z,0.90
2022-09-27T11:03:48.976Z,0.50
2022-09-27T11:06:20.439Z,0.70
2022-09-27T11:08:48.885Z,0.90
2022-09-27T11:11:21.244Z,0.93
2022-09-27T11:14:04.351Z,1.00
2022-09-27T11:16:41.953Z,0.70
2022-09-27T11:19:18.226Z,0.80
2022-09-27T11:21:50.700Z,0.80
2022-09-27T11:24:24.525Z,0.80
2022-09-27T11:27:00.282Z,1.27
2022-09-27T11:29:33.188Z,1.13
2022-09-27T11:33:01.538Z,1.10
2022-09-27T11:35:48.420Z,0.80
2022-09-27T11:38:47.990Z,0.80
2022-09-27T11:41:17.419Z,0.90
2022-09-27T11:44:03.684Z,0.70
2022-09-27T11:46:40.247Z,1.03
2022-09-27T11:49:28.124Z,0.80
2022-09-27T11:52:13.865Z,0.90
2022-09-27T11:54:47.800Z,1.10
2022-09-27T11:57:20.648Z,0.80
2022-09-27T12:00:18.847Z,0.87
2022-09-27T12:03:12.682Z,1.10
2022-09-27T12:05:57.385Z,0.87
2022-09-27T12:08:31.420Z,0.80
2022-09-27T12:11:01.477Z,0.90
2022-09-27T12:13:42.674Z,0.83
2022-09-27T12:16:11.478Z,1.00
2022-09-27T12:18:42.077Z,0.97
2022-09-27T12:21:26.344Z,0.90
2022-09-27T12:23:57.670Z,1.13
2022-09-27T12:26:39.704Z,1.10
2022-09-27T12:29:13.976Z,1.17
2022-09-27T12:31:43.385Z,1.10
2022-09-27T12:34:19.813Z,1.00
2022-09-27T12:36:50.143Z,0.90
2022-09-27T12:39:19.389Z,1.83
2022-09-27T12:41:52.420Z,1.10
2022-09-27T12:44:29.707Z,1.00
2022-09-27T12:47:03.278Z,1.10
2022-09-27T12:49:39.932Z,1.03
2022-09-27T12:52:11.843Z,1.10
2022-09-27T12:54:50.969Z,1.10
2022-09-27T12:57:22.249Z,1.10
2022-09-27T12:59:56.877Z,1.20
2022-09-27T13:02:57.374Z,1.03
2022-09-27T13:05:42.198Z,0.90
2022-09-27T13:08:20.035Z,1.00
2022-09-27T13:10:52.039Z,1.20
2022-09-27T13:13:36.600Z,1.50
2022-09-27T13:16:06.126Z,1.00
2022-09-27T13:18:53.056Z,1.67
2022-09-27T13:21:40.213Z,0.90
2022-09-27T13:24:33.635Z,0.97
2022-09-27T13:27:03.149Z,0.90
2022-09-27T13:29:33.117Z,0.80
2022-09-27T13:32:16.593Z,0.90
2022-09-27T13:35:11.793Z,0.97
2022-09-27T13:37:46.185Z,0.93
2022-09-27T13:40:25.700Z,0.80
2022-09-27T13:43:09.948Z,0.83
2022-09-27T13:45:44.073Z,0.90
2022-09-27T13:48:16.641Z,0.80
2022-09-27T13:50:49.249Z,0.77
2022-09-27T13:53:21.560Z,0.90
2022-09-27T13:55:51.281Z,0.97
2022-09-27T13:58:46.761Z,1.17
2022-09-27T14:01:37.089Z,0.87
2022-09-27T14:04:06.465Z,0.90
2022-09-27T14:06:36.430Z,1.00
2022-09-27T14:09:05.492Z,0.90
2022-09-27T14:11:35.725Z,1.00
2022-09-27T14:14:05.336Z,0.80
2022-09-27T14:16:44.596Z,1.20
2022-09-27T14:19:15.993Z,1.20
2022-09-27T14:21:45.188Z,1.10
2022-09-27T14:24:45.143Z,1.10
2022-09-27T14:27:25.292Z,0.93
2022-09-27T14:30:07.757Z,1.00
2022-09-27T14:32:36.876Z,0.93
2022-09-27T14:35:41.866Z,0.90
2022-09-27T14:38:33.125Z,1.00
2022-09-27T14:41:00.012Z,0.97
2022-09-27T14:43:28.833Z,0.90
2022-09-27T14:46:00.494Z,1.10
2022-09-27T14:48:30.102Z,1.03
2022-09-27T14:51:05.007Z,1.00
2022-09-27T14:53:34.608Z,1.20
2022-09-27T14:56:02.657Z,1.20
2022-09-27T14:58:46.499Z,0.90
2022-09-27T15:01:17.577Z,0.87
2022-09-27T15:03:46.119Z,1.10
2022-09-27T15:06:14.011Z,1.20
2022-09-27T15:08:42.648Z,1.47
2022-09-27T15:11:10.604Z,1.13
2022-09-27T15:13:38.644Z,1.30
2022-09-27T15:16:09.200Z,1.10
2022-09-27T15:18:46.468Z,1.07
2022-09-27T15:21:15.001Z,0.90
2022-09-27T15:23:43.568Z,1.10
2022-09-27T15:26:14.282Z,1.00
2022-09-27T15:28:44.053Z,2.13
2022-09-27T15:31:11.756Z,1.37
2022-09-27T15:33:39.469Z,0.70
2022-09-27T15:36:09.269Z,0.70
2022-09-27T15:38:39.190Z,0.90
2022-09-27T15:41:14.040Z,0.80
2022-09-27T15:43:43.447Z,1.00
2022-09-27T15:46:27.815Z,0.90
2022-09-27T15:49:13.967Z,1.23
2022-09-27T15:51:44.137Z,1.60
2022-09-27T15:54:11.826Z,1.17
2022-09-27T15:56:40.174Z,1.13
2022-09-27T15:59:08.416Z,1.00
2022-09-27T16:01:36.015Z,1.10
2022-09-27T16:04:03.574Z,1.00
2022-09-27T16:06:32.285Z,1.00
2022-09-27T16:09:01.510Z,1.10
2022-09-27T16:11:29.054Z,1.10
2022-09-27T16:13:56.593Z,1.50
2022-09-27T16:16:24.252Z,1.30
2022-09-27T16:18:51.838Z,1.20
2022-09-27T16:21:19.439Z,1.50
2022-09-27T16:23:46.957Z,1.23
2022-09-27T16:26:15.894Z,1.40
2022-09-27T16:28:43.562Z,1.40
2022-09-27T16:31:12.101Z,1.77
2022-09-27T16:33:39.665Z,1.43
2022-09-27T16:36:09.113Z,2.00
2022-09-27T16:38:36.643Z,0.90
2022-09-27T16:41:04.661Z,0.80
2022-09-27T16:43:33.881Z,0.90
2022-09-27T16:46:05.753Z,0.80
2022-09-27T16:48:33.649Z,0.80
2022-09-27T16:51:22.321Z,0.70
2022-09-27T16:53:49.929Z,0.50
2022-09-27T16:56:17.906Z,0.70
2022-09-27T16:58:46.855Z,0.80
2022-09-27T17:01:16.809Z,0.90
2022-09-27T17:03:45.344Z,0.80
2022-09-27T17:06:12.904Z,0.90
2022-09-27T17:08:40.474Z,0.60
2022-09-27T17:11:08.036Z,0.73
2022-09-27T17:13:35.564Z,0.90
2022-09-27T17:16:06.317Z,0.77
2022-09-27T17:18:34.073Z,0.70
2022-09-27T17:21:03.248Z,0.80
2022-09-27T17:23:31.049Z,0.80
2022-09-27T17:26:03.208Z,0.80
2022-09-27T17:28:30.805Z,0.90
2022-09-27T17:31:10.498Z,0.80
2022-09-27T17:33:41.688Z,0.60
2022-09-27T17:36:09.537Z,0.73
2022-09-27T17:38:37.361Z,0.70
2022-09-27T17:41:05.846Z,0.77
2022-09-27T17:43:34.078Z,0.90
2022-09-27T17:46:05.646Z,1.23
2022-09-27T17:48:52.908Z,0.90
2022-09-27T17:51:20.536Z,1.17
2022-09-27T17:53:48.173Z,1.00
2022-09-27T17:56:16.380Z,0.93
2022-09-27T17:58:48.001Z,0.80
2022-09-27T18:01:16.076Z,1.10
2022-09-27T18:03:45.361Z,0.97
2022-09-27T18:06:13.904Z,0.90
2022-09-27T18:08:41.881Z,1.10
2022-09-27T18:11:10.318Z,0.90
2022-09-27T18:13:41.742Z,1.00
2022-09-27T18:16:09.848Z,1.30
2022-09-27T18:18:39.308Z,1.03
2022-09-27T18:21:09.624Z,1.07
2022-09-27T18:23:37.177Z,1.20
2022-09-27T18:26:08.774Z,1.27
2022-09-27T18:28:37.519Z,1.43
2022-09-27T18:31:05.643Z,1.30
2022-09-27T18:33:33.792Z,1.40
2022-09-27T18:36:05.769Z,1.80
2022-09-27T18:38:35.328Z,1.60
2022-09-27T18:41:07.331Z,1.50
2022-09-27T18:43:38.665Z,1.50
2022-09-27T18:46:33.855Z,1.30
2022-09-27T18:48:55.489Z,1.63
2022-09-27T18:51:26.382Z,1.60
2022-09-27T18:53:56.945Z,1.30
2022-09-27T18:56:24.951Z,1.60
2022-09-27T18:58:52.869Z,1.30
2022-09-27T19:01:21.347Z,1.50
2022-09-27T19:03:49.062Z,1.30
2022-09-27T19:06:17.548Z,1.30
2022-09-27T19:08:45.365Z,1.20
2022-09-27T19:11:15.333Z,1.13
2022-09-27T19:13:50.974Z,0.97
2022-09-27T19:16:20.755Z,1.40
2022-09-27T19:18:48.901Z,1.00
2022-09-27T19:21:17.468Z,1.03
2022-09-27T19:23:45.007Z,0.93
2022-09-27T19:26:14.841Z,1.40
2022-09-27T19:28:43.637Z,1.00
2022-09-27T19:31:13.625Z,1.83
2022-09-27T19:33:41.271Z,0.93
2022-09-27T19:36:10.371Z,1.20
2022-09-27T19:38:38.881Z,1.00
2022-09-27T19:41:07.832Z,1.00
2022-09-27T19:43:36.771Z,1.10
2022-09-27T19:46:05.071Z,1.20
2022-09-27T19:48:32.648Z,1.20
2022-09-27T19:51:00.895Z,1.20
2022-09-27T19:53:32.064Z,1.20
2022-09-27T19:56:00.434Z,1.20
2022-09-27T19:58:28.745Z,1.10
2022-09-27T20:01:02.064Z,1.20
2022-09-27T20:03:30.387Z,1.20
2022-09-27T20:05:58.573Z,1.10
2022-09-27T20:08:26.185Z,1.40
2022-09-27T20:10:54.261Z,1.10
2022-09-27T20:13:22.141Z,1.20
2022-09-27T20:15:49.711Z,1.30
2022-09-27T20:18:18.664Z,1.10
2022-09-27T20:20:46.565Z,1.10
2022-09-27T20:23:14.141Z,1.27
2022-09-27T20:25:43.215Z,1.20
2022-09-27T20:28:10.886Z,1.17
2022-09-27T20:30:39.104Z,1.20
2022-09-27T20:33:24.241Z,1.13
2022-09-27T20:35:53.848Z,1.00
2022-09-27T20:38:21.513Z,1.17
2022-09-27T20:40:55.629Z,1.10
2022-09-27T20:43:26.355Z,1.20
2022-09-27T20:45:53.911Z,1.20
2022-09-27T20:48:21.502Z,1.37
2022-09-27T20:50:49.064Z,1.10
2022-09-27T20:53:18.007Z,1.20
2022-09-27T20:55:45.524Z,1.20
2022-09-27T20:58:13.089Z,1.17
2022-09-27T21:00:40.690Z,1.20
2022-09-27T21:03:08.245Z,1.17
2022-09-27T21:05:35.783Z,1.10
2022-09-27T21:08:03.324Z,1.10
2022-09-27T21:10:33.207Z,1.27
2022-09-27T21:13:00.757Z,1.20
2022-09-27T21:15:28.340Z,1.30
2022-09-27T21:17:57.183Z,1.20
2022-09-27T21:20:25.643Z,1.03
2022-09-27T21:22:53.213Z,1.40
2022-09-27T21:25:20.805Z,1.20
2022-09-27T21:27:53.996Z,1.27
2022-09-27T21:30:22.500Z,1.20
2022-09-27T21:32:53.698Z,1.10
2022-09-27T21:35:21.342Z,1.10
2022-09-27T21:37:49.068Z,1.30
2022-09-27T21:40:16.757Z,1.10
2022-09-27T21:42:44.392Z,1.10
2022-09-27T21:45:13.397Z,1.20
2022-09-27T21:47:40.924Z,1.13
2022-09-27T21:50:08.830Z,1.20
2022-09-27T21:52:36.356Z,1.27
2022-09-27T21:55:06.110Z,1.03
2022-09-27T21:57:33.664Z,1.30
2022-09-27T22:00:01.485Z,1.20
2022-09-27T22:02:33.329Z,1.00
2022-09-27T22:05:00.870Z,1.30
2022-09-27T22:07:28.401Z,1.00
2022-09-27T22:09:56.005Z,1.20
2022-09-27T22:12:23.533Z,1.10
2022-09-27T22:14:51.076Z,1.10
2022-09-27T22:17:18.613Z,1.30
2022-09-27T22:19:47.533Z,1.00
2022-09-27T22:22:15.071Z,1.20
2022-09-27T22:24:42.607Z,1.30
2022-09-27T22:27:10.152Z,1.10
2022-09-27T22:29:37.701Z,1.30
2022-09-27T22:32:05.306Z,1.10
2022-09-27T22:34:32.840Z,1.10
2022-09-27T22:37:02.077Z,1.07
2022-09-27T22:39:29.912Z,1.20
2022-09-27T22:41:57.483Z,1.33
2022-09-27T22:44:25.047Z,1.13
2022-09-27T22:46:52.667Z,1.20
2022-09-27T22:49:20.265Z,1.20
2022-09-27T22:51:47.820Z,1.10
2022-09-27T22:54:16.852Z,1.20
2022-09-27T22:56:44.376Z,1.10
2022-09-27T22:59:11.896Z,1.20
2022-09-27T23:01:39.433Z,1.50
2022-09-27T23:04:07.057Z,1.17
2022-09-27T23:06:34.664Z,1.33
2022-09-27T23:09:02.710Z,1.30
2022-09-27T23:11:31.637Z,1.00
2022-09-27T23:13:59.178Z,1.13
2022-09-27T23:16:26.795Z,1.40
2022-09-27T23:18:54.994Z,1.20
2022-09-27T23:21:25.755Z,1.20
2022-09-27T23:23:55.074Z,1.20
2022-09-27T23:26:24.688Z,1.20
2022-09-27T23:28:54.476Z,1.33
2022-09-27T23:31:23.753Z,1.00
2022-09-27T23:33:51.981Z,1.23
2022-09-27T23:36:20.482Z,1.53
2022-09-27T23:38:48.550Z,1.33
2022-09-27T23:41:16.977Z,1.00
2022-09-27T23:43:45.072Z,1.10
2022-09-27T23:46:14.180Z,1.30
2022-09-27T23:48:42.482Z,1.20
2022-09-27T23:51:11.052Z,1.00
2022-09-27T23:53:38.885Z,1.10
2022-09-27T23:56:07.617Z,1.00
2022-09-27T23:58:35.516Z,1.20
